createdAt,value
2022-09-26T09:03:51.621Z,74.15
2022-09-26T09:07:05.199Z,74.20
2022-09-26T09:10:14.883Z,74.12
2022-09-26T09:13:36.982Z,74.43
2022-09-26T09:17:20.902Z,73.75
2022-09-26T09:20:58.156Z,73.48
2022-09-26T09:24:27.557Z,74.12
2022-09-26T09:28:01.211Z,73.93
2022-09-26T09:31:11.454Z,72.64
2022-09-26T09:34:41.054Z,72.99
2022-09-26T09:38:17.097Z,73.73
2022-09-26T09:41:38.559Z,72.73
2022-09-26T09:45:01.596Z,72.58
2022-09-26T09:48:04.105Z,72.48
2022-09-26T09:51:15.546Z,71.41
2022-09-26T09:54:40.112Z,71.24
2022-09-26T09:58:14.829Z,68.92
2022-09-26T10:01:32.409Z,67.82
2022-09-26T10:04:44.217Z,67.19
2022-09-26T10:07:48.525Z,66.85
2022-09-26T10:11:24.185Z,67.22
2022-09-26T10:15:03.331Z,68.07
2022-09-26T10:18:27.077Z,66.05
2022-09-26T10:21:48.635Z,65.85
2022-09-26T10:24:52.968Z,66.77
2022-09-26T10:27:58.402Z,67.23
2022-09-26T10:31:10.006Z,66.37
2022-09-26T10:34:41.546Z,66.96
2022-09-26T10:37:57.800Z,66.96
2022-09-26T10:41:01.841Z,66.29
2022-09-26T10:44:22.023Z,66.86
2022-09-26T10:47:46.184Z,66.51
2022-09-26T10:51:46.782Z,66.56
2022-09-26T10:55:04.899Z,68.67
2022-09-26T10:58:13.739Z,67.28
2022-09-26T11:01:22.506Z,66.41
2022-09-26T11:04:53.131Z,68.67
2022-09-26T11:08:19.031Z,67.99
2022-09-26T11:11:42.861Z,65.84
2022-09-26T11:14:45.869Z,66.27
2022-09-26T11:17:52.971Z,67.90
2022-09-26T11:20:57.908Z,66.03
2022-09-26T11:24:14.576Z,65.79
2022-09-26T11:27:24.719Z,66.89
2022-09-26T11:30:28.835Z,64.25
2022-09-26T11:33:37.447Z,64.39
2022-09-26T11:37:16.729Z,63.19
2022-09-26T11:40:51.858Z,63.29
2022-09-26T11:44:10.468Z,64.85
2022-09-26T11:47:44.981Z,62.75
2022-09-26T11:51:22.970Z,63.37
2022-09-26T11:54:51.516Z,61.43
2022-09-26T11:58:06.553Z,61.07
2022-09-26T12:01:38.248Z,60.45
2022-09-26T12:04:45.313Z,61.69
2022-09-26T12:08:11.494Z,61.46
2022-09-26T12:11:25.960Z,60.53
2022-09-26T12:14:36.948Z,62.26
2022-09-26T12:17:52.535Z,59.41
2022-09-26T12:21:07.747Z,58.76
2022-09-26T12:24:28.058Z,58.74
2022-09-26T12:27:58.621Z,58.80
2022-09-26T12:31:12.461Z,58.18
2022-09-26T12:34:43.836Z,56.25
2022-09-26T12:38:24.411Z,55.26
2022-09-26T12:42:05.498Z,56.35
2022-09-26T12:45:55.411Z,56.75
2022-09-26T12:49:27.927Z,56.40
2022-09-26T12:52:42.250Z,55.34
2022-09-26T12:55:53.661Z,56.83
2022-09-26T12:58:55.850Z,55.88
2022-09-26T13:02:17.166Z,55.16
2022-09-26T13:05:51.932Z,58.17
2022-09-26T13:09:09.675Z,58.80
2022-09-26T13:12:40.757Z,56.51
2022-09-26T13:16:11.287Z,56.06
2022-09-26T13:19:34.910Z,55.64
2022-09-26T13:22:50.844Z,58.89
2022-09-26T13:25:54.460Z,58.99
2022-09-26T13:29:25.738Z,59.68
2022-09-26T13:32:41.985Z,58.19
2022-09-26T13:35:47.865Z,57.17
2022-09-26T13:39:03.735Z,58.12
2022-09-26T13:42:45.181Z,59.72
2022-09-26T13:46:00.625Z,58.49
2022-09-26T13:49:25.190Z,58.63
2022-09-26T13:52:40.329Z,59.12
2022-09-26T13:55:43.573Z,58.65
2022-09-26T13:58:46.658Z,59.03
2022-09-26T14:02:18.044Z,58.84
2022-09-26T14:05:23.154Z,59.89
2022-09-26T14:08:46.547Z,58.94
2022-09-26T14:11:55.259Z,58.80
2022-09-26T14:15:24.721Z,61.83
2022-09-26T14:18:47.426Z,61.28
2022-09-26T14:22:26.490Z,58.65
2022-09-26T14:25:47.597Z,57.33
2022-09-26T14:28:52.960Z,58.83
2022-09-26T14:32:04.504Z,58.83
2022-09-26T14:35:21.037Z,60.24
2022-09-26T14:38:23.896Z,63.57
2022-09-26T14:41:31.724Z,63.34
2022-09-26T14:44:37.253Z,63.05
2022-09-26T14:47:49.231Z,63.69
2022-09-26T14:50:57.682Z,63.43
2022-09-26T14:54:14.157Z,64.24
2022-09-26T14:57:24.383Z,63.02
2022-09-26T15:00:40.718Z,63.18
2022-09-26T15:03:43.994Z,60.06
2022-09-26T15:06:55.130Z,63.57
2022-09-26T15:10:20.662Z,61.45
2022-09-26T15:13:25.440Z,61.25
2022-09-26T15:16:34.674Z,62.18
2022-09-26T15:19:42.764Z,63.50
2022-09-26T15:22:45.917Z,63.09
2022-09-26T15:25:48.256Z,62.76
2022-09-26T15:28:52.141Z,62.37
2022-09-26T15:31:56.025Z,64.09
2022-09-26T15:35:00.806Z,64.99
2022-09-26T15:38:12.903Z,63.58
2022-09-26T15:41:39.248Z,64.87
2022-09-26T15:44:53.962Z,64.48
2022-09-26T15:47:58.849Z,64.36
2022-09-26T15:51:28.259Z,64.78
2022-09-26T15:54:32.245Z,65.27
2022-09-26T15:57:34.709Z,66.78
2022-09-26T16:00:38.042Z,66.30
2022-09-26T16:03:47.291Z,66.21
2022-09-26T16:07:16.682Z,66.83
2022-09-26T16:10:29.831Z,66.72
2022-09-26T16:13:36.410Z,66.69
2022-09-26T16:16:38.869Z,66.70
2022-09-26T16:19:48.049Z,66.99
2022-09-26T16:23:00.388Z,67.85
2022-09-26T16:26:24.109Z,68.86
2022-09-26T16:29:34.974Z,69.29
2022-09-26T16:32:37.437Z,68.98
2022-09-26T16:35:47.363Z,69.52
2022-09-26T16:38:57.433Z,70.24
2022-09-26T16:42:07.656Z,70.30
2022-09-26T16:45:13.995Z,69.91
2022-09-26T16:48:37.630Z,70.27
2022-09-26T16:51:41.131Z,71.56
2022-09-26T16:54:43.705Z,71.53
2022-09-26T16:57:55.007Z,71.83
2022-09-26T17:01:15.939Z,71.83
2022-09-26T17:04:20.457Z,72.55
2022-09-26T17:07:24.070Z,72.75
2022-09-26T17:10:26.696Z,72.18
2022-09-26T17:13:32.982Z,72.33
2022-09-26T17:16:35.817Z,71.37
2022-09-26T17:19:39.796Z,71.59
2022-09-26T17:22:42.192Z,71.76
2022-09-26T17:25:48.600Z,71.48
2022-09-26T17:28:53.320Z,70.98
2022-09-26T17:31:56.473Z,71.50
2022-09-26T17:35:01.866Z,71.45
2022-09-26T17:38:04.141Z,71.30
2022-09-26T17:41:06.700Z,72.08
2022-09-26T17:44:09.060Z,71.93
2022-09-26T17:47:11.827Z,72.16
2022-09-26T17:50:24.394Z,72.11
2022-09-26T17:53:32.652Z,72.48
2022-09-26T17:56:35.149Z,72.50
2022-09-26T17:59:42.248Z,72.31
2022-09-26T18:02:46.981Z,72.18
2022-09-26T18:05:49.863Z,72.19
2022-09-26T18:08:54.909Z,73.25
2022-09-26T18:12:02.982Z,73.39
2022-09-26T18:15:05.812Z,72.32
2022-09-26T18:18:19.350Z,72.78
2022-09-26T18:21:24.243Z,73.10
2022-09-26T18:24:28.824Z,73.72
2022-09-26T18:27:33.155Z,74.64
2022-09-26T18:30:35.610Z,74.02
2022-09-26T18:33:38.263Z,74.42
2022-09-26T18:36:40.755Z,74.29
2022-09-26T18:39:43.014Z,74.46
2022-09-26T18:42:45.502Z,74.66
2022-09-26T18:45:47.960Z,74.46
2022-09-26T18:48:50.780Z,74.44
2022-09-26T18:51:53.159Z,73.97
2022-09-26T18:55:14.341Z,74.01
2022-09-26T18:58:24.142Z,74.31
2022-09-26T19:01:38.339Z,75.10
2022-09-26T19:04:40.821Z,75.08
2022-09-26T19:07:44.915Z,74.47
2022-09-26T19:10:47.261Z,74.20
2022-09-26T19:13:54.382Z,74.08
2022-09-26T19:16:57.768Z,75.06
2022-09-26T19:20:00.188Z,74.82
2022-09-26T19:23:02.577Z,74.55
2022-09-26T19:26:05.767Z,74.98
2022-09-26T19:29:13.845Z,74.81
2022-09-26T19:32:22.442Z,74.76
2022-09-26T19:35:36.282Z,74.61
2022-09-26T19:38:38.568Z,74.43
2022-09-26T19:41:41.110Z,74.24
2022-09-26T19:44:43.488Z,74.17
2022-09-26T19:47:47.674Z,74.18
2022-09-26T19:50:52.508Z,73.37
2022-09-26T19:53:54.966Z,72.79
2022-09-26T19:56:57.472Z,73.01
2022-09-26T19:59:59.826Z,73.48
2022-09-26T20:03:02.188Z,73.90
2022-09-26T20:06:15.344Z,74.52
2022-09-26T20:09:19.271Z,75.39
2022-09-26T20:12:21.576Z,74.63
2022-09-26T20:15:24.253Z,74.71
2022-09-26T20:18:26.585Z,74.30
2022-09-26T20:21:29.513Z,75.25
2022-09-26T20:24:33.558Z,73.99
2022-09-26T20:27:35.875Z,74.00
2022-09-26T20:30:54.567Z,74.48
2022-09-26T20:34:00.120Z,73.62
2022-09-26T20:37:03.113Z,74.42
2022-09-26T20:40:27.186Z,74.24
2022-09-26T20:43:35.540Z,74.20
2022-09-26T20:46:50.697Z,74.66
2022-09-26T20:49:56.983Z,74.22
2022-09-26T20:52:59.878Z,73.97
2022-09-26T20:56:03.961Z,74.55
2022-09-26T20:59:06.775Z,74.71
2022-09-26T21:02:32.548Z,74.53
2022-09-26T21:05:34.981Z,74.24
2022-09-26T21:08:37.447Z,74.04
2022-09-26T21:11:41.725Z,74.48
2022-09-26T21:14:44.743Z,74.96
2022-09-26T21:17:49.553Z,74.99
2022-09-26T21:20:52.836Z,74.71
2022-09-26T21:24:19.515Z,74.40
2022-09-26T21:27:24.455Z,74.22
2022-09-26T21:30:26.964Z,74.82
2022-09-26T21:33:32.413Z,74.36
2022-09-26T21:36:37.697Z,74.56
2022-09-26T21:39:40.490Z,74.50
2022-09-26T21:42:46.902Z,74.58
2022-09-26T21:45:52.478Z,74.94
2022-09-26T21:48:55.635Z,75.00
2022-09-26T21:52:12.007Z,75.08
2022-09-26T21:55:20.697Z,74.68
2022-09-26T21:58:28.142Z,74.67
2022-09-26T22:01:30.424Z,74.76
2022-09-26T22:04:32.998Z,74.60
2022-09-26T22:07:35.803Z,74.95
2022-09-26T22:10:38.414Z,74.56
2022-09-26T22:13:40.733Z,74.50
2022-09-26T22:16:43.319Z,74.97
2022-09-26T22:19:45.950Z,74.67
2022-09-26T22:22:48.773Z,74.51
2022-09-26T22:25:51.394Z,74.85
2022-09-26T22:28:54.035Z,74.90
2022-09-26T22:31:56.442Z,74.88
2022-09-26T22:34:58.937Z,74.92
2022-09-26T22:38:01.271Z,75.22
2022-09-26T22:41:09.082Z,74.94
2022-09-26T22:44:11.476Z,74.61
2022-09-26T22:47:13.859Z,74.68
2022-09-26T22:50:16.242Z,74.81
2022-09-26T22:53:18.606Z,74.47
2022-09-26T22:56:20.958Z,74.40
2022-09-26T22:59:23.467Z,75.05
2022-09-26T23:02:25.864Z,75.71
2022-09-26T23:05:28.186Z,75.17
2022-09-26T23:08:32.376Z,74.84
2022-09-26T23:11:34.881Z,74.60
2022-09-26T23:14:37.368Z,74.66
2022-09-26T23:17:39.781Z,74.34
2022-09-26T23:20:43.408Z,74.72
2022-09-26T23:23:47.828Z,74.55
2022-09-26T23:26:50.628Z,73.96
2022-09-26T23:29:53.952Z,74.21
2022-09-26T23:32:56.495Z,74.28
2022-09-26T23:35:59.931Z,74.43
2022-09-26T23:39:02.285Z,74.65
2022-09-26T23:42:07.265Z,74.41
2022-09-26T23:45:10.265Z,74.51
2022-09-26T23:48:12.503Z,74.00
2022-09-26T23:51:14.886Z,73.99
2022-09-26T23:54:17.140Z,74.28
2022-09-26T23:57:20.875Z,74.21
